sensor_id;sensor_type;location;lat;lon;timestamp;temperature;humidity
3921;DHT22;1975;49.356;6.816;2022-08-03T00:01:24;24.90;88.60
3921;DHT22;1975;49.356;6.816;2022-08-03T00:03:50;24.90;88.60
3921;DHT22;1975;49.356;6.816;2022-08-03T00:06:16;24.90;88.60
3921;DHT22;1975;49.356;6.816;2022-08-03T00:08:41;24.90;88.60
3921;DHT22;1975;49.356;6.816;2022-08-03T00:11:06;24.90;88.60
3921;DHT22;1975;49.356;6.816;2022-08-03T00:13:32;24.90;88.60
3921;DHT22;1975;49.356;6.816;2022-08-03T00:15:57;24.80;88.50
3921;DHT22;1975;49.356;6.816;2022-08-03T00:18:23;24.80;88.50
3921;DHT22;1975;49.356;6.816;2022-08-03T00:20:49;24.80;89.30
3921;DHT22;1975;49.356;6.816;2022-08-03T00:23:14;24.80;88.50
3921;DHT22;1975;49.356;6.816;2022-08-03T00:25:40;24.80;88.50
3921;DHT22;1975;49.356;6.816;2022-08-03T00:28:05;24.80;88.40
3921;DHT22;1975;49.356;6.816;2022-08-03T00:30:31;24.80;88.40
3921;DHT22;1975;49.356;6.816;2022-08-03T00:32:57;24.80;88.40
3921;DHT22;1975;49.356;6.816;2022-08-03T00:35:23;24.70;89.00
3921;DHT22;1975;49.356;6.816;2022-08-03T00:37:48;24.70;88.30
3921;DHT22;1975;49.356;6.816;2022-08-03T00:40:15;24.70;88.10
3921;DHT22;1975;49.356;6.816;2022-08-03T00:42:50;24.70;88.20
3921;DHT22;1975;49.356;6.816;2022-08-03T00:45:18;24.60;88.10
3921;DHT22;1975;49.356;6.816;2022-08-03T00:47:44;24.60;88.20
3921;DHT22;1975;49.356;6.816;2022-08-03T00:50:09;24.60;88.10
3921;DHT22;1975;49.356;6.816;2022-08-03T00:52:35;24.60;88.10
3921;DHT22;1975;49.356;6.816;2022-08-03T00:55:02;24.60;88.20
3921;DHT22;1975;49.356;6.816;2022-08-03T00:57:28;24.60;88.10
3921;DHT22;1975;49.356;6.816;2022-08-03T00:59:54;24.60;88.20
3921;DHT22;1975;49.356;6.816;2022-08-03T01:02:20;24.60;88.20
3921;DHT22;1975;49.356;6.816;2022-08-03T01:04:45;24.60;88.20
3921;DHT22;1975;49.356;6.816;2022-08-03T01:07:36;24.50;88.00
3921;DHT22;1975;49.356;6.816;2022-08-03T01:10:16;24.50;88.10
3921;DHT22;1975;49.356;6.816;2022-08-03T01:12:58;24.50;88.10
3921;DHT22;1975;49.356;6.816;2022-08-03T01:15:28;24.50;88.10
3921;DHT22;1975;49.356;6.816;2022-08-03T01:17:57;24.50;88.00
3921;DHT22;1975;49.356;6.816;2022-08-03T01:20:23;24.50;88.10
3921;DHT22;1975;49.356;6.816;2022-08-03T01:25:40;24.40;88.10
3921;DHT22;1975;49.356;6.816;2022-08-03T01:28:27;24.40;88.10
3921;DHT22;1975;49.356;6.816;2022-08-03T01:30:54;24.40;88.10
3921;DHT22;1975;49.356;6.816;2022-08-03T01:33:23;24.40;88.00
3921;DHT22;1975;49.356;6.816;2022-08-03T01:36:03;24.30;88.00
3921;DHT22;1975;49.356;6.816;2022-08-03T01:38:31;24.30;87.80
3921;DHT22;1975;49.356;6.816;2022-08-03T01:41:00;24.30;87.90
3921;DHT22;1975;49.356;6.816;2022-08-03T01:43:28;24.30;88.00
3921;DHT22;1975;49.356;6.816;2022-08-03T01:45:55;24.30;88.00
3921;DHT22;1975;49.356;6.816;2022-08-03T01:48:21;24.30;88.10
3921;DHT22;1975;49.356;6.816;2022-08-03T01:50:47;24.30;88.00
3921;DHT22;1975;49.356;6.816;2022-08-03T01:53:16;24.20;88.00
3921;DHT22;1975;49.356;6.816;2022-08-03T01:55:44;24.20;88.00
3921;DHT22;1975;49.356;6.816;2022-08-03T01:58:10;24.20;88.00
3921;DHT22;1975;49.356;6.816;2022-08-03T02:00:36;24.20;88.00
3921;DHT22;1975;49.356;6.816;2022-08-03T02:03:06;24.20;88.00
3921;DHT22;1975;49.356;6.816;2022-08-03T02:05:32;24.20;88.00
3921;DHT22;1975;49.356;6.816;2022-08-03T02:07:59;24.20;88.00
3921;DHT22;1975;49.356;6.816;2022-08-03T02:10:25;24.20;88.00
3921;DHT22;1975;49.356;6.816;2022-08-03T02:12:52;24.10;88.00
3921;DHT22;1975;49.356;6.816;2022-08-03T02:15:17;24.10;88.00
3921;DHT22;1975;49.356;6.816;2022-08-03T02:17:43;24.10;88.00
3921;DHT22;1975;49.356;6.816;2022-08-03T02:20:10;24.10;88.00
3921;DHT22;1975;49.356;6.816;2022-08-03T02:22:38;24.00;87.90
3921;DHT22;1975;49.356;6.816;2022-08-03T02:25:04;24.00;87.90
3921;DHT22;1975;49.356;6.816;2022-08-03T02:27:29;24.00;87.90
3921;DHT22;1975;49.356;6.816;2022-08-03T02:30:14;24.00;87.90
3921;DHT22;1975;49.356;6.816;2022-08-03T02:32:41;24.00;88.00
3921;DHT22;1975;49.356;6.816;2022-08-03T02:35:09;24.00;87.90
3921;DHT22;1975;49.356;6.816;2022-08-03T02:37:36;24.00;87.90
3921;DHT22;1975;49.356;6.816;2022-08-03T02:40:03;23.90;87.90
3921;DHT22;1975;49.356;6.816;2022-08-03T02:42:33;23.90;87.90
3921;DHT22;1975;49.356;6.816;2022-08-03T02:45:00;23.90;87.90
3921;DHT22;1975;49.356;6.816;2022-08-03T02:47:27;23.90;87.90
3921;DHT22;1975;49.356;6.816;2022-08-03T02:49:54;23.90;88.00
3921;DHT22;1975;49.356;6.816;2022-08-03T02:52:22;23.90;88.00
3921;DHT22;1975;49.356;6.816;2022-08-03T02:54:48;23.80;88.00
3921;DHT22;1975;49.356;6.816;2022-08-03T02:57:15;23.80;88.00
3921;DHT22;1975;49.356;6.816;2022-08-03T02:59:41;23.80;87.90
3921;DHT22;1975;49.356;6.816;2022-08-03T03:02:08;23.80;88.00
3921;DHT22;1975;49.356;6.816;2022-08-03T03:04:34;23.80;87.90
3921;DHT22;1975;49.356;6.816;2022-08-03T03:06:59;23.80;88.00
3921;DHT22;1975;49.356;6.816;2022-08-03T03:09:25;23.80;88.00
3921;DHT22;1975;49.356;6.816;2022-08-03T03:11:51;23.70;88.00
3921;DHT22;1975;49.356;6.816;2022-08-03T03:14:17;23.70;88.00
3921;DHT22;1975;49.356;6.816;2022-08-03T03:16:44;23.70;88.00
3921;DHT22;1975;49.356;6.816;2022-08-03T03:19:12;23.70;88.00
3921;DHT22;1975;49.356;6.816;2022-08-03T03:21:38;23.70;88.00
3921;DHT22;1975;49.356;6.816;2022-08-03T03:24:04;23.70;88.10
3921;DHT22;1975;49.356;6.816;2022-08-03T03:26:30;23.70;88.10
3921;DHT22;1975;49.356;6.816;2022-08-03T03:28:56;23.60;88.00
3921;DHT22;1975;49.356;6.816;2022-08-03T03:31:22;23.60;88.00
3921;DHT22;1975;49.356;6.816;2022-08-03T03:33:47;23.60;88.10
3921;DHT22;1975;49.356;6.816;2022-08-03T03:36:13;23.60;88.00
3921;DHT22;1975;49.356;6.816;2022-08-03T03:38:39;23.60;88.00
3921;DHT22;1975;49.356;6.816;2022-08-03T03:41:04;23.60;88.10
3921;DHT22;1975;49.356;6.816;2022-08-03T03:43:30;23.60;88.10
3921;DHT22;1975;49.356;6.816;2022-08-03T03:45:56;23.50;88.00
3921;DHT22;1975;49.356;6.816;2022-08-03T03:48:23;23.50;88.00
3921;DHT22;1975;49.356;6.816;2022-08-03T03:50:48;23.50;88.10
3921;DHT22;1975;49.356;6.816;2022-08-03T03:53:14;23.50;88.00
3921;DHT22;1975;49.356;6.816;2022-08-03T03:55:40;23.50;88.10
3921;DHT22;1975;49.356;6.816;2022-08-03T03:58:06;23.50;88.10
3921;DHT22;1975;49.356;6.816;2022-08-03T04:00:32;23.50;88.10
3921;DHT22;1975;49.356;6.816;2022-08-03T04:02:57;23.50;88.10
3921;DHT22;1975;49.356;6.816;2022-08-03T04:05:23;23.40;88.10
3921;DHT22;1975;49.356;6.816;2022-08-03T04:08:13;23.40;88.10
3921;DHT22;1975;49.356;6.816;2022-08-03T04:13:37;23.40;88.10
3921;DHT22;1975;49.356;6.816;2022-08-03T04:16:03;23.40;88.10
3921;DHT22;1975;49.356;6.816;2022-08-03T04:18:31;23.40;88.20
3921;DHT22;1975;49.356;6.816;2022-08-03T04:21:00;23.40;88.20
3921;DHT22;1975;49.356;6.816;2022-08-03T04:23:26;23.30;88.10
3921;DHT22;1975;49.356;6.816;2022-08-03T04:25:54;23.30;88.20
3921;DHT22;1975;49.356;6.816;2022-08-03T04:28:20;23.30;88.20
3921;DHT22;1975;49.356;6.816;2022-08-03T04:30:47;23.30;88.20
3921;DHT22;1975;49.356;6.816;2022-08-03T04:33:15;23.30;88.20
3921;DHT22;1975;49.356;6.816;2022-08-03T04:35:42;23.20;88.20
3921;DHT22;1975;49.356;6.816;2022-08-03T04:38:08;23.20;88.20
3921;DHT22;1975;49.356;6.816;2022-08-03T04:40:39;23.20;88.20
3921;DHT22;1975;49.356;6.816;2022-08-03T04:43:05;23.20;88.20
3921;DHT22;1975;49.356;6.816;2022-08-03T04:45:32;23.20;88.30
3921;DHT22;1975;49.356;6.816;2022-08-03T04:47:58;23.20;88.30
3921;DHT22;1975;49.356;6.816;2022-08-03T04:50:24;23.20;88.30
3921;DHT22;1975;49.356;6.816;2022-08-03T04:52:49;23.20;88.40
3921;DHT22;1975;49.356;6.816;2022-08-03T04:55:28;23.20;88.60
3921;DHT22;1975;49.356;6.816;2022-08-03T04:57:54;23.20;89.30
3921;DHT22;1975;49.356;6.816;2022-08-03T05:00:20;23.20;88.50
3921;DHT22;1975;49.356;6.816;2022-08-03T05:02:45;23.20;88.60
3921;DHT22;1975;49.356;6.816;2022-08-03T05:05:11;23.20;88.50
3921;DHT22;1975;49.356;6.816;2022-08-03T05:07:36;23.20;88.60
3921;DHT22;1975;49.356;6.816;2022-08-03T05:10:05;23.20;88.60
3921;DHT22;1975;49.356;6.816;2022-08-03T05:12:31;23.20;88.60
3921;DHT22;1975;49.356;6.816;2022-08-03T05:14:57;23.20;88.70
3921;DHT22;1975;49.356;6.816;2022-08-03T05:17:22;23.20;88.80
3921;DHT22;1975;49.356;6.816;2022-08-03T05:19:48;23.20;88.80
3921;DHT22;1975;49.356;6.816;2022-08-03T05:22:13;23.20;88.90
3921;DHT22;1975;49.356;6.816;2022-08-03T05:24:38;23.20;89.00
3921;DHT22;1975;49.356;6.816;2022-08-03T05:27:04;23.20;89.00
3921;DHT22;1975;49.356;6.816;2022-08-03T05:29:29;23.20;89.10
3921;DHT22;1975;49.356;6.816;2022-08-03T05:31:55;23.20;89.20
3921;DHT22;1975;49.356;6.816;2022-08-03T05:34:20;23.20;89.20
3921;DHT22;1975;49.356;6.816;2022-08-03T05:36:46;23.20;89.20
3921;DHT22;1975;49.356;6.816;2022-08-03T05:39:11;23.20;89.20
3921;DHT22;1975;49.356;6.816;2022-08-03T05:41:37;23.20;89.30
3921;DHT22;1975;49.356;6.816;2022-08-03T05:44:03;23.20;89.30
3921;DHT22;1975;49.356;6.816;2022-08-03T05:46:28;23.20;89.30
3921;DHT22;1975;49.356;6.816;2022-08-03T05:48:54;23.30;89.40
3921;DHT22;1975;49.356;6.816;2022-08-03T05:51:19;23.30;89.50
3921;DHT22;1975;49.356;6.816;2022-08-03T05:53:45;23.20;89.50
3921;DHT22;1975;49.356;6.816;2022-08-03T05:56:10;23.30;89.50
3921;DHT22;1975;49.356;6.816;2022-08-03T05:58:36;23.30;89.60
3921;DHT22;1975;49.356;6.816;2022-08-03T06:01:02;23.30;89.70
3921;DHT22;1975;49.356;6.816;2022-08-03T06:03:27;23.30;89.80
3921;DHT22;1975;49.356;6.816;2022-08-03T06:05:53;23.30;89.70
3921;DHT22;1975;49.356;6.816;2022-08-03T06:08:21;23.30;89.70
3921;DHT22;1975;49.356;6.816;2022-08-03T06:10:46;23.30;89.60
3921;DHT22;1975;49.356;6.816;2022-08-03T06:13:12;23.30;89.60
3921;DHT22;1975;49.356;6.816;2022-08-03T06:15:37;23.30;89.70
3921;DHT22;1975;49.356;6.816;2022-08-03T06:18:03;23.30;89.60
3921;DHT22;1975;49.356;6.816;2022-08-03T06:20:28;23.30;89.50
3921;DHT22;1975;49.356;6.816;2022-08-03T06:22:54;23.30;89.50
3921;DHT22;1975;49.356;6.816;2022-08-03T06:25:19;23.30;89.30
3921;DHT22;1975;49.356;6.816;2022-08-03T06:27:45;23.40;89.60
3921;DHT22;1975;49.356;6.816;2022-08-03T06:30:11;23.40;89.60
3921;DHT22;1975;49.356;6.816;2022-08-03T06:32:37;23.30;89.60
3921;DHT22;1975;49.356;6.816;2022-08-03T06:35:03;23.40;89.70
3921;DHT22;1975;49.356;6.816;2022-08-03T06:37:28;23.40;89.80
3921;DHT22;1975;49.356;6.816;2022-08-03T06:39:54;23.40;89.80
3921;DHT22;1975;49.356;6.816;2022-08-03T06:42:19;23.40;89.90
3921;DHT22;1975;49.356;6.816;2022-08-03T06:44:45;23.40;90.00
3921;DHT22;1975;49.356;6.816;2022-08-03T06:47:10;23.50;90.00
3921;DHT22;1975;49.356;6.816;2022-08-03T06:49:36;23.50;90.10
3921;DHT22;1975;49.356;6.816;2022-08-03T06:52:01;23.50;90.10
3921;DHT22;1975;49.356;6.816;2022-08-03T06:54:27;23.50;90.10
3921;DHT22;1975;49.356;6.816;2022-08-03T06:56:53;23.50;90.10
3921;DHT22;1975;49.356;6.816;2022-08-03T06:59:18;23.50;90.20
3921;DHT22;1975;49.356;6.816;2022-08-03T07:01:43;23.50;90.20
3921;DHT22;1975;49.356;6.816;2022-08-03T07:04:09;23.60;90.30
3921;DHT22;1975;49.356;6.816;2022-08-03T07:06:36;23.50;90.30
3921;DHT22;1975;49.356;6.816;2022-08-03T07:09:01;23.60;90.40
3921;DHT22;1975;49.356;6.816;2022-08-03T07:11:27;23.60;90.40
3921;DHT22;1975;49.356;6.816;2022-08-03T07:13:52;23.60;90.40
3921;DHT22;1975;49.356;6.816;2022-08-03T07:16:18;23.60;90.40
3921;DHT22;1975;49.356;6.816;2022-08-03T07:18:44;23.60;90.50
3921;DHT22;1975;49.356;6.816;2022-08-03T07:21:09;23.70;90.60
3921;DHT22;1975;49.356;6.816;2022-08-03T07:23:36;23.70;90.60
3921;DHT22;1975;49.356;6.816;2022-08-03T07:26:02;23.70;90.70
3921;DHT22;1975;49.356;6.816;2022-08-03T07:28:28;23.70;90.70
3921;DHT22;1975;49.356;6.816;2022-08-03T07:30:53;23.70;90.80
3921;DHT22;1975;49.356;6.816;2022-08-03T07:33:19;23.80;90.90
3921;DHT22;1975;49.356;6.816;2022-08-03T07:35:44;23.80;90.90
3921;DHT22;1975;49.356;6.816;2022-08-03T07:38:09;23.80;91.00
3921;DHT22;1975;49.356;6.816;2022-08-03T07:40:35;23.90;91.00
3921;DHT22;1975;49.356;6.816;2022-08-03T07:43:00;23.90;91.00
3921;DHT22;1975;49.356;6.816;2022-08-03T07:45:28;23.90;91.00
3921;DHT22;1975;49.356;6.816;2022-08-03T07:47:53;24.00;91.20
3921;DHT22;1975;49.356;6.816;2022-08-03T07:50:19;24.00;91.10
3921;DHT22;1975;49.356;6.816;2022-08-03T07:52:44;24.00;91.00
3921;DHT22;1975;49.356;6.816;2022-08-03T07:55:17;24.10;91.20
3921;DHT22;1975;49.356;6.816;2022-08-03T07:57:43;24.10;91.20
3921;DHT22;1975;49.356;6.816;2022-08-03T08:00:27;24.10;91.20
3921;DHT22;1975;49.356;6.816;2022-08-03T08:02:52;24.10;91.20
3921;DHT22;1975;49.356;6.816;2022-08-03T08:05:18;24.20;91.20
3921;DHT22;1975;49.356;6.816;2022-08-03T08:07:43;24.20;91.20
3921;DHT22;1975;49.356;6.816;2022-08-03T08:10:09;24.30;91.30
3921;DHT22;1975;49.356;6.816;2022-08-03T08:12:35;24.30;91.30
3921;DHT22;1975;49.356;6.816;2022-08-03T08:15:00;24.30;91.30
3921;DHT22;1975;49.356;6.816;2022-08-03T08:17:26;24.30;91.30
3921;DHT22;1975;49.356;6.816;2022-08-03T08:19:51;24.40;91.30
3921;DHT22;1975;49.356;6.816;2022-08-03T08:22:17;24.40;91.30
3921;DHT22;1975;49.356;6.816;2022-08-03T08:24:43;24.50;91.30
3921;DHT22;1975;49.356;6.816;2022-08-03T08:27:09;24.50;91.30
3921;DHT22;1975;49.356;6.816;2022-08-03T08:29:36;24.50;91.30
3921;DHT22;1975;49.356;6.816;2022-08-03T08:32:02;24.60;91.30
3921;DHT22;1975;49.356;6.816;2022-08-03T08:34:27;24.50;91.40
3921;DHT22;1975;49.356;6.816;2022-08-03T08:36:53;24.60;91.40
3921;DHT22;1975;49.356;6.816;2022-08-03T08:39:18;24.60;91.50
3921;DHT22;1975;49.356;6.816;2022-08-03T08:41:44;24.60;91.50
3921;DHT22;1975;49.356;6.816;2022-08-03T08:44:09;24.60;91.40
3921;DHT22;1975;49.356;6.816;2022-08-03T08:46:34;24.70;91.40
3921;DHT22;1975;49.356;6.816;2022-08-03T08:49:02;24.80;91.40
3921;DHT22;1975;49.356;6.816;2022-08-03T08:51:31;24.70;91.40
3921;DHT22;1975;49.356;6.816;2022-08-03T08:54:00;24.80;91.50
3921;DHT22;1975;49.356;6.816;2022-08-03T08:56:27;24.80;91.50
3921;DHT22;1975;49.356;6.816;2022-08-03T08:58:53;24.80;91.50
3921;DHT22;1975;49.356;6.816;2022-08-03T09:01:20;24.80;91.50
3921;DHT22;1975;49.356;6.816;2022-08-03T09:03:46;24.90;91.50
3921;DHT22;1975;49.356;6.816;2022-08-03T09:06:14;24.90;91.60
3921;DHT22;1975;49.356;6.816;2022-08-03T09:08:40;24.90;91.60
3921;DHT22;1975;49.356;6.816;2022-08-03T09:11:05;24.90;91.70
3921;DHT22;1975;49.356;6.816;2022-08-03T09:13:32;24.90;91.70
3921;DHT22;1975;49.356;6.816;2022-08-03T09:16:10;25.00;91.70
3921;DHT22;1975;49.356;6.816;2022-08-03T09:18:36;25.00;91.80
3921;DHT22;1975;49.356;6.816;2022-08-03T09:21:11;25.00;91.70
3921;DHT22;1975;49.356;6.816;2022-08-03T09:23:44;25.00;91.70
3921;DHT22;1975;49.356;6.816;2022-08-03T09:26:10;25.00;91.60
3921;DHT22;1975;49.356;6.816;2022-08-03T09:28:35;25.10;91.60
3921;DHT22;1975;49.356;6.816;2022-08-03T09:31:01;25.10;91.70
3921;DHT22;1975;49.356;6.816;2022-08-03T09:33:26;25.10;91.70
3921;DHT22;1975;49.356;6.816;2022-08-03T09:35:52;25.10;91.80
3921;DHT22;1975;49.356;6.816;2022-08-03T09:40:51;25.10;91.80
3921;DHT22;1975;49.356;6.816;2022-08-03T09:43:17;25.20;91.80
3921;DHT22;1975;49.356;6.816;2022-08-03T09:45:43;25.20;91.90
3921;DHT22;1975;49.356;6.816;2022-08-03T09:50:48;25.20;91.80
3921;DHT22;1975;49.356;6.816;2022-08-03T09:53:14;25.20;91.70
3921;DHT22;1975;49.356;6.816;2022-08-03T09:55:48;25.30;91.80
3921;DHT22;1975;49.356;6.816;2022-08-03T09:58:14;25.30;91.90
3921;DHT22;1975;49.356;6.816;2022-08-03T10:03:18;25.40;91.90
3921;DHT22;1975;49.356;6.816;2022-08-03T10:05:44;25.40;91.90
3921;DHT22;1975;49.356;6.816;2022-08-03T10:08:14;25.30;92.30
3921;DHT22;1975;49.356;6.816;2022-08-03T10:10:43;25.30;92.00
3921;DHT22;1975;49.356;6.816;2022-08-03T10:13:12;25.40;92.00
3921;DHT22;1975;49.356;6.816;2022-08-03T10:15:38;25.40;92.00
3921;DHT22;1975;49.356;6.816;2022-08-03T10:18:04;25.40;92.00
3921;DHT22;1975;49.356;6.816;2022-08-03T10:20:29;25.50;92.00
3921;DHT22;1975;49.356;6.816;2022-08-03T10:22:55;25.50;92.00
3921;DHT22;1975;49.356;6.816;2022-08-03T10:25:21;25.50;92.10
3921;DHT22;1975;49.356;6.816;2022-08-03T10:27:47;25.50;92.20
3921;DHT22;1975;49.356;6.816;2022-08-03T10:30:15;25.50;92.20
3921;DHT22;1975;49.356;6.816;2022-08-03T10:32:47;25.60;92.20
3921;DHT22;1975;49.356;6.816;2022-08-03T10:35:15;25.50;92.30
3921;DHT22;1975;49.356;6.816;2022-08-03T10:37:41;25.60;92.30
3921;DHT22;1975;49.356;6.816;2022-08-03T10:40:08;25.60;92.40
3921;DHT22;1975;49.356;6.816;2022-08-03T10:42:34;25.60;92.40
3921;DHT22;1975;49.356;6.816;2022-08-03T10:45:03;25.60;92.20
3921;DHT22;1975;49.356;6.816;2022-08-03T10:47:29;25.60;92.40
3921;DHT22;1975;49.356;6.816;2022-08-03T10:49:55;25.60;92.40
3921;DHT22;1975;49.356;6.816;2022-08-03T10:52:21;25.60;92.50
3921;DHT22;1975;49.356;6.816;2022-08-03T10:54:46;25.70;92.30
3921;DHT22;1975;49.356;6.816;2022-08-03T11:00:08;25.80;91.70
3921;DHT22;1975;49.356;6.816;2022-08-03T11:05:25;25.80;91.50
3921;DHT22;1975;49.356;6.816;2022-08-03T11:08:14;25.90;90.90
3921;DHT22;1975;49.356;6.816;2022-08-03T11:10:37;25.90;91.00
3921;DHT22;1975;49.356;6.816;2022-08-03T11:13:06;25.80;90.90
3921;DHT22;1975;49.356;6.816;2022-08-03T11:15:32;25.90;90.80
3921;DHT22;1975;49.356;6.816;2022-08-03T11:18:08;25.90;90.80
3921;DHT22;1975;49.356;6.816;2022-08-03T11:20:50;25.90;91.20
3921;DHT22;1975;49.356;6.816;2022-08-03T11:23:17;25.90;90.80
3921;DHT22;1975;49.356;6.816;2022-08-03T11:28:27;25.90;90.70
3921;DHT22;1975;49.356;6.816;2022-08-03T11:30:53;25.90;90.80
3921;DHT22;1975;49.356;6.816;2022-08-03T11:33:27;26.00;91.00
3921;DHT22;1975;49.356;6.816;2022-08-03T11:35:57;25.90;91.00
3921;DHT22;1975;49.356;6.816;2022-08-03T11:38:22;25.90;91.20
3921;DHT22;1975;49.356;6.816;2022-08-03T11:46:01;26.00;91.30
3921;DHT22;1975;49.356;6.816;2022-08-03T11:48:36;26.00;91.30
3921;DHT22;1975;49.356;6.816;2022-08-03T11:51:03;26.00;91.30
3921;DHT22;1975;49.356;6.816;2022-08-03T11:53:29;26.00;91.50
3921;DHT22;1975;49.356;6.816;2022-08-03T11:55:57;26.00;91.70
3921;DHT22;1975;49.356;6.816;2022-08-03T11:58:23;26.10;91.80
3921;DHT22;1975;49.356;6.816;2022-08-03T12:00:49;26.10;91.50
3921;DHT22;1975;49.356;6.816;2022-08-03T12:03:15;26.10;91.60
3921;DHT22;1975;49.356;6.816;2022-08-03T12:05:48;26.10;91.90
3921;DHT22;1975;49.356;6.816;2022-08-03T12:08:15;26.20;91.80
3921;DHT22;1975;49.356;6.816;2022-08-03T12:10:46;26.10;92.00
3921;DHT22;1975;49.356;6.816;2022-08-03T12:13:12;26.10;91.50
3921;DHT22;1975;49.356;6.816;2022-08-03T12:15:37;26.20;91.80
3921;DHT22;1975;49.356;6.816;2022-08-03T12:18:03;26.20;91.80
3921;DHT22;1975;49.356;6.816;2022-08-03T12:20:36;26.20;92.00
3921;DHT22;1975;49.356;6.816;2022-08-03T12:23:02;26.20;91.80
3921;DHT22;1975;49.356;6.816;2022-08-03T12:25:28;26.30;92.10
3921;DHT22;1975;49.356;6.816;2022-08-03T12:28:05;26.30;92.10
3921;DHT22;1975;49.356;6.816;2022-08-03T12:30:30;26.30;92.00
3921;DHT22;1975;49.356;6.816;2022-08-03T12:32:56;26.30;92.10
3921;DHT22;1975;49.356;6.816;2022-08-03T12:35:22;26.30;92.00
3921;DHT22;1975;49.356;6.816;2022-08-03T12:37:49;26.30;91.90
3921;DHT22;1975;49.356;6.816;2022-08-03T12:40:14;26.30;92.30
3921;DHT22;1975;49.356;6.816;2022-08-03T12:42:48;26.30;92.20
3921;DHT22;1975;49.356;6.816;2022-08-03T12:45:24;26.40;92.30
3921;DHT22;1975;49.356;6.816;2022-08-03T12:47:50;26.40;92.30
3921;DHT22;1975;49.356;6.816;2022-08-03T12:52:50;26.40;92.40
3921;DHT22;1975;49.356;6.816;2022-08-03T12:55:20;26.40;92.40
3921;DHT22;1975;49.356;6.816;2022-08-03T12:57:45;26.50;92.20
3921;DHT22;1975;49.356;6.816;2022-08-03T13:00:12;26.50;92.00
3921;DHT22;1975;49.356;6.816;2022-08-03T13:02:38;26.50;91.70
3921;DHT22;1975;49.356;6.816;2022-08-03T13:05:09;26.50;91.80
3921;DHT22;1975;49.356;6.816;2022-08-03T13:07:41;26.50;92.10
3921;DHT22;1975;49.356;6.816;2022-08-03T13:10:07;26.50;92.10
3921;DHT22;1975;49.356;6.816;2022-08-03T13:12:44;26.60;92.20
3921;DHT22;1975;49.356;6.816;2022-08-03T13:15:10;26.60;91.90
3921;DHT22;1975;49.356;6.816;2022-08-03T13:17:35;26.60;91.90
3921;DHT22;1975;49.356;6.816;2022-08-03T13:20:01;26.60;92.20
3921;DHT22;1975;49.356;6.816;2022-08-03T13:22:26;26.70;92.20
3921;DHT22;1975;49.356;6.816;2022-08-03T13:24:55;26.70;92.50
3921;DHT22;1975;49.356;6.816;2022-08-03T13:27:22;26.70;92.80
3921;DHT22;1975;49.356;6.816;2022-08-03T13:29:47;26.70;92.60
3921;DHT22;1975;49.356;6.816;2022-08-03T13:32:13;26.70;92.40
3921;DHT22;1975;49.356;6.816;2022-08-03T13:34:38;26.70;92.30
3921;DHT22;1975;49.356;6.816;2022-08-03T13:37:04;26.80;91.80
3921;DHT22;1975;49.356;6.816;2022-08-03T13:39:29;26.80;91.40
3921;DHT22;1975;49.356;6.816;2022-08-03T13:41:55;26.80;91.20
3921;DHT22;1975;49.356;6.816;2022-08-03T13:44:20;26.80;91.00
3921;DHT22;1975;49.356;6.816;2022-08-03T13:46:46;26.80;90.90
3921;DHT22;1975;49.356;6.816;2022-08-03T13:49:12;26.90;90.90
3921;DHT22;1975;49.356;6.816;2022-08-03T13:51:37;26.90;90.70
3921;DHT22;1975;49.356;6.816;2022-08-03T13:54:03;26.90;91.00
3921;DHT22;1975;49.356;6.816;2022-08-03T13:56:29;26.90;91.30
3921;DHT22;1975;49.356;6.816;2022-08-03T13:58:55;26.90;91.10
3921;DHT22;1975;49.356;6.816;2022-08-03T14:01:20;27.00;91.10
3921;DHT22;1975;49.356;6.816;2022-08-03T14:03:46;27.00;91.30
3921;DHT22;1975;49.356;6.816;2022-08-03T14:06:14;27.00;91.50
3921;DHT22;1975;49.356;6.816;2022-08-03T14:08:39;27.00;91.40
3921;DHT22;1975;49.356;6.816;2022-08-03T14:11:05;27.00;91.60
3921;DHT22;1975;49.356;6.816;2022-08-03T14:13:31;27.10;91.60
3921;DHT22;1975;49.356;6.816;2022-08-03T14:15:56;27.10;91.60
3921;DHT22;1975;49.356;6.816;2022-08-03T14:18:23;27.10;91.90
3921;DHT22;1975;49.356;6.816;2022-08-03T14:20:48;27.10;91.50
3921;DHT22;1975;49.356;6.816;2022-08-03T14:23:14;27.20;91.40
3921;DHT22;1975;49.356;6.816;2022-08-03T14:25:40;27.20;91.40
3921;DHT22;1975;49.356;6.816;2022-08-03T14:28:06;27.20;91.60
3921;DHT22;1975;49.356;6.816;2022-08-03T14:30:31;27.30;91.90
3921;DHT22;1975;49.356;6.816;2022-08-03T14:32:56;27.30;91.50
3921;DHT22;1975;49.356;6.816;2022-08-03T14:35:22;27.30;91.70
3921;DHT22;1975;49.356;6.816;2022-08-03T14:37:47;27.40;91.90
3921;DHT22;1975;49.356;6.816;2022-08-03T14:40:13;27.40;91.90
3921;DHT22;1975;49.356;6.816;2022-08-03T14:42:38;27.40;91.70
3921;DHT22;1975;49.356;6.816;2022-08-03T14:45:04;27.40;91.90
3921;DHT22;1975;49.356;6.816;2022-08-03T14:47:29;27.50;91.60
3921;DHT22;1975;49.356;6.816;2022-08-03T14:49:55;27.50;91.90
3921;DHT22;1975;49.356;6.816;2022-08-03T14:52:20;27.50;92.20
3921;DHT22;1975;49.356;6.816;2022-08-03T14:54:46;27.50;92.10
3921;DHT22;1975;49.356;6.816;2022-08-03T14:57:11;27.60;91.70
3921;DHT22;1975;49.356;6.816;2022-08-03T14:59:37;27.60;91.60
3921;DHT22;1975;49.356;6.816;2022-08-03T15:02:02;27.60;92.00
3921;DHT22;1975;49.356;6.816;2022-08-03T15:04:28;27.70;91.60
3921;DHT22;1975;49.356;6.816;2022-08-03T15:06:53;27.70;91.50
3921;DHT22;1975;49.356;6.816;2022-08-03T15:09:19;27.70;91.30
3921;DHT22;1975;49.356;6.816;2022-08-03T15:11:44;27.80;91.10
3921;DHT22;1975;49.356;6.816;2022-08-03T15:14:10;27.80;91.80
3921;DHT22;1975;49.356;6.816;2022-08-03T15:16:36;27.80;92.10
3921;DHT22;1975;49.356;6.816;2022-08-03T15:19:01;27.90;91.90
3921;DHT22;1975;49.356;6.816;2022-08-03T15:21:27;27.90;91.70
3921;DHT22;1975;49.356;6.816;2022-08-03T15:23:52;28.00;92.00
3921;DHT22;1975;49.356;6.816;2022-08-03T15:26:18;28.00;91.40
3921;DHT22;1975;49.356;6.816;2022-08-03T15:28:43;28.00;91.20
3921;DHT22;1975;49.356;6.816;2022-08-03T15:31:09;28.00;91.30
3921;DHT22;1975;49.356;6.816;2022-08-03T15:33:34;28.00;91.20
3921;DHT22;1975;49.356;6.816;2022-08-03T15:36:01;28.10;91.20
3921;DHT22;1975;49.356;6.816;2022-08-03T15:38:26;28.10;91.10
3921;DHT22;1975;49.356;6.816;2022-08-03T15:40:52;28.20;91.10
3921;DHT22;1975;49.356;6.816;2022-08-03T15:43:21;28.20;90.90
3921;DHT22;1975;49.356;6.816;2022-08-03T15:45:47;28.20;90.70
3921;DHT22;1975;49.356;6.816;2022-08-03T15:48:12;28.30;91.30
3921;DHT22;1975;49.356;6.816;2022-08-03T15:50:38;28.30;91.10
3921;DHT22;1975;49.356;6.816;2022-08-03T15:53:03;28.30;90.80
3921;DHT22;1975;49.356;6.816;2022-08-03T15:55:29;28.40;91.20
3921;DHT22;1975;49.356;6.816;2022-08-03T15:57:55;28.40;91.70
3921;DHT22;1975;49.356;6.816;2022-08-03T16:00:21;28.50;91.80
3921;DHT22;1975;49.356;6.816;2022-08-03T16:02:46;28.50;91.40
3921;DHT22;1975;49.356;6.816;2022-08-03T16:05:12;28.50;91.20
3921;DHT22;1975;49.356;6.816;2022-08-03T16:07:37;28.50;90.90
3921;DHT22;1975;49.356;6.816;2022-08-03T16:10:13;28.60;91.00
3921;DHT22;1975;49.356;6.816;2022-08-03T16:12:39;28.60;91.60
3921;DHT22;1975;49.356;6.816;2022-08-03T16:15:05;28.60;91.50
3921;DHT22;1975;49.356;6.816;2022-08-03T16:17:30;28.70;90.90
3921;DHT22;1975;49.356;6.816;2022-08-03T16:19:56;28.70;90.90
3921;DHT22;1975;49.356;6.816;2022-08-03T16:22:22;28.70;91.40
3921;DHT22;1975;49.356;6.816;2022-08-03T16:24:48;28.80;91.50
3921;DHT22;1975;49.356;6.816;2022-08-03T16:27:14;28.80;91.20
3921;DHT22;1975;49.356;6.816;2022-08-03T16:29:39;28.80;91.50